Time;durP1;ratioP1;P1;durP2;ratioP2;P2;SDS_P1;SDS_P2;PMS_P1;PMS_P2;Temp;Humidity;BMP_temperature;BMP_pressure;BME280_temperature;BME280_humidity;BME280_pressure;Samples;Min_cycle;Max_cycle;Signal;HPM_P1;HPM_P2
2021/10/26 05:42:58;;;;;;;14.63;4.60;;;18.20;71.20;;;;;;5045187;24;20055;-72
2021/10/26 05:45:24;;;;;;;10.90;4.15;;;18.20;70.80;;;;;;4771592;30;20056;-72
2021/10/26 05:47:50;;;;;;;10.30;4.15;;;18.20;71.10;;;;;;4771196;30;20596;-73
2021/10/26 05:50:16;;;;;;;11.93;4.53;;;18.30;71.30;;;;;;4771670;30;20048;-73
2021/10/26 05:52:42;;;;;;;18.10;5.07;;;18.30;70.40;;;;;;4772038;30;20055;-73
2021/10/26 05:55:08;;;;;;;13.52;4.28;;;18.30;71.20;;;;;;4771641;30;20352;-75
2021/10/26 05:57:33;;;;;;;22.10;5.00;;;18.30;72.00;;;;;;4762899;30;20063;-77
2021/10/26 05:59:59;;;;;;;14.77;5.00;;;18.30;71.70;;;;;;4754239;30;20095;-74
2021/10/26 06:02:25;;;;;;;21.23;5.70;;;18.30;71.60;;;;;;4764077;30;20043;-72
2021/10/26 06:04:51;;;;;;;21.98;6.90;;;18.20;71.70;;;;;;4789718;30;20082;-76
2021/10/26 06:07:17;;;;;;;21.55;6.38;;;18.20;71.80;;;;;;4789485;30;20452;-74
2021/10/26 06:09:43;;;;;;;22.23;6.55;;;18.20;71.80;;;;;;4790338;29;20109;-72
2021/10/26 06:12:15;;;;;;;20.13;6.18;;;18.10;71.50;;;;;;4792424;30;20051;-72
2021/10/26 06:14:44;;;;;;;20.65;7.40;;;18.10;71.90;;;;;;4772173;30;20060;-75
2021/10/26 06:17:09;;;;;;;21.25;7.25;;;18.20;71.40;;;;;;4774009;30;20083;-73
2021/10/26 06:19:35;;;;;;;17.63;7.38;;;18.20;70.70;;;;;;4774498;30;20127;-73
2021/10/26 06:22:01;;;;;;;14.20;7.43;;;18.30;70.10;;;;;;4774510;30;20100;-72
2021/10/26 06:24:26;;;;;;;16.52;7.20;;;18.30;69.40;;;;;;4778881;30;20059;-72
2021/10/26 06:26:52;;;;;;;14.55;6.93;;;18.30;68.80;;;;;;4775175;30;20048;-72
2021/10/26 06:29:19;;;;;;;15.23;6.63;;;18.20;67.70;;;;;;4775189;30;20470;-71
2021/10/26 06:31:45;;;;;;;14.48;6.03;;;18.20;67.40;;;;;;4774948;30;20066;-71
2021/10/26 06:34:11;;;;;;;14.13;6.50;;;18.10;67.30;;;;;;4788939;29;20047;-71
2021/10/26 06:36:37;;;;;;;13.52;5.80;;;18.10;67.50;;;;;;4793134;30;20062;-71
2021/10/26 06:39:04;;;;;;;14.18;6.05;;;18.00;68.30;;;;;;4792046;30;20058;-71
2021/10/26 06:41:30;;;;;;;13.88;6.13;;;18.00;67.80;;;;;;4792161;30;20047;-71
2021/10/26 06:43:55;;;;;;;11.55;5.72;;;17.90;67.90;;;;;;4778733;29;20066;-71
2021/10/26 06:46:21;;;;;;;12.30;6.65;;;17.90;68.10;;;;;;4758679;30;20056;-70
2021/10/26 06:48:47;;;;;;;13.23;5.80;;;17.80;68.20;;;;;;4774463;30;20055;-72
2021/10/26 06:51:12;;;;;;;10.52;5.00;;;17.80;68.60;;;;;;4758696;30;20375;-71
2021/10/26 06:53:40;;;;;;;10.23;4.28;;;17.70;68.60;;;;;;4784176;30;20066;-71
2021/10/26 06:56:11;;;;;;;12.77;6.07;;;17.70;69.10;;;;;;4791986;29;20055;-72
2021/10/26 06:58:37;;;;;;;11.80;5.43;;;17.70;69.20;;;;;;4789702;30;20063;-72
2021/10/26 07:01:07;;;;;;;13.23;6.35;;;17.70;69.30;;;;;;4763185;30;20127;-71
2021/10/26 07:03:37;;;;;;;12.27;6.07;;;17.60;69.40;;;;;;4776106;30;20051;-72
2021/10/26 07:06:04;;;;;;;17.55;5.57;;;17.60;69.70;;;;;;4788913;30;20062;-72
2021/10/26 07:08:30;;;;;;;8.18;4.93;;;17.60;70.10;;;;;;4791663;29;20112;-71
2021/10/26 07:10:57;;;;;;;10.07;5.25;;;17.50;70.80;;;;;;4792001;29;20130;-72
2021/10/26 07:13:23;;;;;;;9.60;4.78;;;17.50;70.50;;;;;;4791970;30;20341;-71
2021/10/26 07:15:49;;;;;;;12.27;4.25;;;17.50;70.80;;;;;;4791046;30;20364;-72
2021/10/26 07:18:15;;;;;;;12.65;4.75;;;17.50;70.90;;;;;;4791772;30;20062;-70
2021/10/26 07:20:41;;;;;;;9.15;4.63;;;17.50;71.10;;;;;;4775866;30;20473;-71
2021/10/26 07:23:07;;;;;;;11.20;5.05;;;17.50;71.40;;;;;;4791874;30;20062;-72
2021/10/26 07:25:33;;;;;;;9.23;4.32;;;17.50;71.50;;;;;;4783230;30;20386;-72
2021/10/26 07:27:59;;;;;;;10.57;4.45;;;17.40;71.50;;;;;;4773674;30;20062;-73
2021/10/26 07:30:29;;;;;;;7.63;3.80;;;17.40;71.50;;;;;;4761824;30;20130;-71
2021/10/26 07:33:01;;;;;;;11.75;4.38;;;17.40;71.70;;;;;;4757959;30;20468;-71
2021/10/26 07:35:34;;;;;;;30.63;12.80;;;17.40;71.90;;;;;;4786291;30;20152;-72
2021/10/26 07:38:00;;;;;;;32.53;13.02;;;17.40;71.80;;;;;;4791476;29;20134;-73
2021/10/26 07:40:26;;;;;;;28.83;12.45;;;17.40;71.50;;;;;;4776178;30;20228;-72
2021/10/26 07:42:51;;;;;;;28.38;11.55;;;17.40;71.10;;;;;;4793275;29;20082;-74
2021/10/26 07:45:17;;;;;;;28.55;11.23;;;17.30;70.90;;;;;;4797104;29;20157;-72
2021/10/26 07:47:43;;;;;;;25.75;11.00;;;17.30;70.70;;;;;;4791916;29;20145;-73
2021/10/26 07:50:09;;;;;;;22.77;10.50;;;17.30;70.80;;;;;;4775579;30;20098;-73
2021/10/26 07:52:36;;;;;;;18.55;9.35;;;17.20;70.70;;;;;;4791598;30;20059;-73
2021/10/26 07:55:04;;;;;;;18.45;9.02;;;17.20;70.60;;;;;;4801091;29;20126;-73
2021/10/26 07:57:30;;;;;;;25.45;10.60;;;17.10;70.60;;;;;;4802682;29;20062;-72
2021/10/26 07:59:57;;;;;;;23.50;10.35;;;17.10;70.80;;;;;;4792018;29;20063;-73
2021/10/26 08:02:25;;;;;;;16.90;8.77;;;17.20;71.00;;;;;;4789628;29;20098;-77
2021/10/26 08:04:59;;;;;;;18.95;8.52;;;17.20;70.70;;;;;;4774591;30;20534;-80
2021/10/26 08:07:26;;;;;;;16.27;8.73;;;17.30;70.60;;;;;;4790151;30;20055;-73
2021/10/26 08:09:54;;;;;;;18.30;8.02;;;17.20;70.40;;;;;;4788458;29;20059;-73
2021/10/26 08:12:21;;;;;;;18.42;7.63;;;17.20;70.50;;;;;;4789651;29;20406;-74
2021/10/26 08:14:48;;;;;;;16.02;7.35;;;17.20;70.70;;;;;;4790696;29;20352;-72
2021/10/26 08:17:15;;;;;;;50.42;23.70;;;17.20;70.80;;;;;;4773992;30;20074;-73
2021/10/26 08:19:43;;;;;;;27.40;12.43;;;17.30;70.60;;;;;;4779196;30;20130;-74
2021/10/26 08:22:16;;;;;;;18.80;8.90;;;17.20;69.80;;;;;;4780997;29;20059;-75
2021/10/26 08:24:46;;;;;;;13.75;7.03;;;17.20;69.20;;;;;;4772435;30;20441;-74
2021/10/26 08:27:27;;;;;;;14.82;7.50;;;17.20;69.10;;;;;;4773171;30;20062;-73
2021/10/26 08:37:58;;;;;;;13.23;6.32;;;16.90;68.90;;;;;;4786029;29;20394;-73
2021/10/26 08:40:26;;;;;;;10.02;5.45;;;16.90;68.90;;;;;;4791135;29;20051;-73
2021/10/26 08:42:54;;;;;;;15.85;6.85;;;16.90;68.90;;;;;;4790075;29;20051;-74
2021/10/26 08:45:23;;;;;;;11.75;6.25;;;16.90;69.10;;;;;;4772394;30;20056;-73
2021/10/26 08:47:50;;;;;;;10.10;5.75;;;16.80;69.20;;;;;;4772068;30;20052;-74
2021/10/26 08:50:20;;;;;;;12.07;5.85;;;16.70;69.10;;;;;;4772841;30;20051;-72
2021/10/26 08:52:49;;;;;;;11.05;5.63;;;16.70;69.30;;;;;;4772303;30;20108;-74
2021/10/26 08:55:18;;;;;;;9.65;5.60;;;16.60;69.40;;;;;;4756479;30;20048;-88
2021/10/26 08:57:45;;;;;;;12.07;5.25;;;16.70;69.60;;;;;;4755290;30;20375;-74
2021/10/26 09:00:12;;;;;;;12.73;6.07;;;16.60;69.70;;;;;;4754335;30;20137;-74
2021/10/26 09:02:46;;;;;;;14.13;5.90;;;16.60;69.90;;;;;;4754534;30;20060;-73
2021/10/26 09:05:31;;;;;;;10.77;6.20;;;16.60;69.90;;;;;;4775178;30;20527;-74
2021/10/26 09:08:07;;;;;;;12.77;6.13;;;16.70;70.10;;;;;;4770987;30;20055;-73
2021/10/26 09:16:47;;;;;;;15.73;5.70;;;16.60;70.90;;;;;;4774165;30;20066;-74
2021/10/26 09:19:16;;;;;;;13.57;4.68;;;16.70;70.60;;;;;;4789669;30;20051;-74
2021/10/26 09:21:55;;;;;;;12.57;4.63;;;16.60;70.50;;;;;;4789729;30;20478;-76
2021/10/26 09:24:21;;;;;;;9.90;4.60;;;16.60;71.10;;;;;;4771304;30;20051;-76
2021/10/26 09:26:53;;;;;;;8.88;3.42;;;16.40;72.10;;;;;;4777011;30;20092;-75
2021/10/26 09:29:31;;;;;;;9.48;4.40;;;16.40;72.30;;;;;;4768095;29;20059;-76
2021/10/26 09:32:13;;;;;;;13.32;3.95;;;16.40;72.30;;;;;;4771733;30;20084;-75
2021/10/26 09:34:49;;;;;;;8.55;4.50;;;16.30;72.60;;;;;;4771811;30;20059;-76
2021/10/26 09:37:16;;;;;;;12.85;4.55;;;16.30;72.80;;;;;;4770876;30;20059;-77
2021/10/26 09:39:56;;;;;;;17.55;6.07;;;16.30;73.40;;;;;;4776788;30;20057;-78
2021/10/26 09:42:22;;;;;;;16.52;7.18;;;16.40;72.70;;;;;;4771618;30;20074;-78
2021/10/26 09:44:51;;;;;;;16.77;7.38;;;16.50;72.00;;;;;;4783248;30;20405;-77
2021/10/26 09:47:23;;;;;;;22.20;9.57;;;16.50;71.60;;;;;;4759584;30;20064;-77
2021/10/26 09:49:56;;;;;;;19.55;9.48;;;16.50;71.30;;;;;;4775644;30;20371;-72
2021/10/26 09:52:24;;;;;;;17.92;8.85;;;16.50;71.30;;;;;;4782872;29;20059;-78
2021/10/26 09:55:13;;;;;;;16.70;7.95;;;16.40;71.70;;;;;;4792510;30;20379;-75
2021/10/26 09:57:58;;;;;;;26.23;9.70;;;16.40;72.30;;;;;;4793067;30;20051;-78
2021/10/26 10:00:33;;;;;;;19.35;9.27;;;16.40;72.70;;;;;;4781186;30;20043;-78
2021/10/26 10:03:02;;;;;;;19.98;9.38;;;16.50;72.60;;;;;;4786990;30;20066;-76
2021/10/26 10:05:30;;;;;;;26.15;8.52;;;16.50;73.00;;;;;;4791043;29;20051;-78
2021/10/26 10:07:57;;;;;;;19.30;9.25;;;16.60;73.20;;;;;;4791953;29;20051;-77
2021/10/26 10:10:35;;;;;;;22.98;9.15;;;16.60;73.40;;;;;;4747467;30;20052;-78
2021/10/26 10:13:03;;;;;;;20.67;8.48;;;16.60;74.30;;;;;;4773259;30;20060;-74
2021/10/26 10:15:29;;;;;;;23.40;9.27;;;16.70;74.10;;;;;;4767078;30;20067;-76
2021/10/26 10:18:04;;;;;;;19.67;8.80;;;16.80;74.50;;;;;;4753316;30;20059;-77
2021/10/26 10:20:30;;;;;;;25.13;8.57;;;16.70;75.00;;;;;;4779023;30;20079;-76
2021/10/26 10:22:59;;;;;;;16.88;9.20;;;16.80;75.30;;;;;;4770595;30;20051;-76
2021/10/26 10:25:27;;;;;;;16.50;7.75;;;16.80;75.60;;;;;;4775088;30;20064;-78
2021/10/26 10:27:55;;;;;;;15.63;7.93;;;16.80;75.90;;;;;;4774832;30;20062;-78
2021/10/26 10:30:21;;;;;;;19.08;8.57;;;16.80;76.30;;;;;;4774559;30;20060;-78
2021/10/26 10:32:47;;;;;;;16.98;8.10;;;16.90;76.70;;;;;;4791646;30;20124;-77
2021/10/26 10:35:16;;;;;;;20.85;8.88;;;16.90;76.90;;;;;;4791208;29;20059;-78
2021/10/26 10:37:43;;;;;;;23.45;13.25;;;16.90;77.50;;;;;;4791531;30;20063;-74
2021/10/26 10:40:10;;;;;;;23.30;14.05;;;16.90;76.60;;;;;;4792102;30;20411;-75
2021/10/26 10:42:51;;;;;;;37.08;15.20;;;16.90;75.80;;;;;;4791998;30;20055;-73
2021/10/26 10:45:24;;;;;;;31.20;14.60;;;16.80;75.60;;;;;;4778383;30;20062;-73
2021/10/26 10:47:55;;;;;;;23.42;13.38;;;16.80;75.50;;;;;;4774611;30;20052;-74
2021/10/26 10:50:37;;;;;;;22.60;13.00;;;16.70;75.40;;;;;;4787024;30;20047;-75
2021/10/26 10:53:10;;;;;;;21.50;13.13;;;16.80;75.60;;;;;;4792031;30;20051;-73
2021/10/26 10:55:38;;;;;;;28.80;13.48;;;16.70;75.40;;;;;;4776165;30;20062;-79
2021/10/26 10:58:27;;;;;;;19.55;12.07;;;16.70;75.80;;;;;;4758832;30;20441;-75
2021/10/26 11:01:36;;;;;;;23.33;12.65;;;16.80;75.70;;;;;;4773660;30;20373;-79
2021/10/26 11:04:18;;;;;;;18.15;10.85;;;16.70;75.50;;;;;;4777078;30;20051;-80
2021/10/26 11:06:44;;;;;;;22.67;11.52;;;16.70;76.10;;;;;;4791144;29;20072;-81
2021/10/26 11:09:29;;;;;;;20.48;10.50;;;16.70;76.30;;;;;;4780829;30;20044;-81
2021/10/26 11:12:26;;;;;;;15.65;9.05;;;16.90;77.10;;;;;;4769977;30;20381;-79
2021/10/26 11:15:00;;;;;;;15.68;8.45;;;17.00;77.20;;;;;;4765686;30;20063;-78
2021/10/26 11:17:32;;;;;;;15.27;8.07;;;17.20;76.70;;;;;;4758337;30;20065;-80
2021/10/26 11:20:12;;;;;;;15.93;7.82;;;17.40;76.80;;;;;;4743950;30;20078;-76
2021/10/26 11:22:58;;;;;;;18.73;7.68;;;17.40;76.40;;;;;;4758245;30;20483;-75
2021/10/26 11:25:34;;;;;;;13.25;5.95;;;17.50;76.70;;;;;;4773447;30;20135;-76
2021/10/26 11:28:12;;;;;;;12.48;6.32;;;17.60;76.30;;;;;;4777963;30;20059;-77
2021/10/26 11:30:46;;;;;;;14.43;6.60;;;17.60;76.20;;;;;;4773315;30;20056;-77
2021/10/26 11:33:13;;;;;;;9.95;5.70;;;17.70;76.30;;;;;;4773475;30;20514;-79
2021/10/26 11:36:07;;;;;;;13.23;6.22;;;17.70;76.10;;;;;;4773065;30;20051;-78
2021/10/26 11:38:46;;;;;;;11.40;6.15;;;17.70;76.10;;;;;;4768598;30;20109;-78
2021/10/26 11:41:22;;;;;;;12.95;4.78;;;17.70;76.00;;;;;;4790804;30;20078;-74
2021/10/26 11:43:54;;;;;;;13.02;5.55;;;17.70;76.00;;;;;;4787016;30;20051;-74
2021/10/26 11:46:25;;;;;;;10.40;4.60;;;17.70;76.10;;;;;;4770418;30;20465;-77
2021/10/26 11:48:52;;;;;;;10.25;4.93;;;17.80;76.10;;;;;;4791516;29;20058;-76
2021/10/26 11:51:23;;;;;;;12.35;4.97;;;17.80;76.10;;;;;;4779074;29;20100;-78
2021/10/26 11:54:08;;;;;;;10.88;5.00;;;17.80;76.30;;;;;;4781594;30;20097;-78
2021/10/26 11:56:45;;;;;;;16.23;4.78;;;17.80;76.50;;;;;;4778936;30;20059;-76
2021/10/26 11:59:15;;;;;;;8.68;4.18;;;17.90;76.40;;;;;;4774607;29;20090;-75
2021/10/26 12:01:43;;;;;;;9.38;4.13;;;18.00;76.50;;;;;;4769109;30;20078;-77
2021/10/26 12:04:25;;;;;;;8.05;4.45;;;18.00;76.40;;;;;;4799552;29;20074;-72
2021/10/26 12:07:09;;;;;;;8.02;4.18;;;18.10;76.30;;;;;;4790497;29;20058;-75
2021/10/26 12:09:56;;;;;;;10.32;4.63;;;17.90;71.20;;;;;;4790970;30;20130;-75
2021/10/26 12:12:25;;;;;;;9.35;4.38;;;18.00;74.60;;;;;;4774222;29;20059;-77
2021/10/26 12:14:51;;;;;;;8.05;4.43;;;18.10;74.80;;;;;;4790856;29;20344;-73
2021/10/26 12:17:22;;;;;;;7.80;4.22;;;18.20;74.40;;;;;;4791304;30;20341;-73
2021/10/26 12:19:49;;;;;;;10.13;5.18;;;18.30;73.90;;;;;;4773247;29;20066;-77
2021/10/26 12:22:18;;;;;;;10.70;6.88;;;18.40;73.60;;;;;;4783233;29;20125;-79
2021/10/26 12:24:47;;;;;;;10.18;5.20;;;18.50;74.50;;;;;;4776074;29;20172;-78
2021/10/26 12:27:13;;;;;;;11.80;8.10;;;18.60;74.70;;;;;;4772401;30;20131;-79
2021/10/26 12:29:43;;;;;;;12.27;6.85;;;18.60;76.50;;;;;;4772922;30;20094;-80
2021/10/26 12:32:10;;;;;;;10.63;5.13;;;18.70;78.10;;;;;;4772867;30;20052;-78
2021/10/26 12:34:37;;;;;;;8.35;4.72;;;18.70;76.40;;;;;;4775312;29;20070;-75
2021/10/26 12:37:36;;;;;;;9.65;4.47;;;18.80;76.90;;;;;;4791298;29;20057;-75
2021/10/26 12:40:22;;;;;;;9.77;5.20;;;18.80;75.30;;;;;;4788829;29;20059;-77
2021/10/26 12:43:03;;;;;;;10.70;5.22;;;18.90;74.70;;;;;;4792260;29;20055;-76
2021/10/26 12:45:34;;;;;;;11.68;5.00;;;18.90;74.30;;;;;;4792633;29;20131;-75
2021/10/26 12:48:05;;;;;;;10.60;5.07;;;18.90;74.20;;;;;;4764610;30;20092;-72
2021/10/26 12:50:43;;;;;;;12.80;5.28;;;18.90;74.10;;;;;;4762740;30;20528;-73
2021/10/26 12:53:38;;;;;;;7.97;4.30;;;18.90;74.20;;;;;;4781705;29;20430;-73
2021/10/26 12:56:24;;;;;;;10.75;4.63;;;18.90;74.10;;;;;;4763762;29;20059;-76
2021/10/26 12:58:54;;;;;;;9.75;4.40;;;19.00;74.20;;;;;;4789486;30;20043;-76
2021/10/26 13:01:32;;;;;;;10.57;5.00;;;18.90;73.60;;;;;;4788978;29;20066;-72
2021/10/26 13:04:19;;;;;;;17.98;4.95;;;18.90;73.40;;;;;;4794628;29;20370;-76
2021/10/26 13:06:53;;;;;;;11.88;4.57;;;18.90;73.50;;;;;;4792246;29;20437;-76
2021/10/26 13:09:38;;;;;;;13.63;4.35;;;18.90;73.30;;;;;;4808949;29;20114;-76
2021/10/26 13:12:18;;;;;;;11.82;3.72;;;18.90;73.50;;;;;;4792175;29;20047;-75
2021/10/26 13:14:54;;;;;;;13.40;4.97;;;18.80;73.70;;;;;;4797764;29;20116;-77
2021/10/26 13:17:40;;;;;;;15.57;3.88;;;18.90;74.00;;;;;;4789947;30;20051;-77
2021/10/26 13:20:51;;;;;;;12.70;3.92;;;18.80;74.20;;;;;;4789695;29;20126;-76
2021/10/26 13:23:28;;;;;;;16.35;3.67;;;18.90;74.40;;;;;;4774085;30;20070;-76
2021/10/26 13:26:02;;;;;;;12.30;3.85;;;18.90;74.50;;;;;;4789159;29;20093;-76
2021/10/26 13:28:32;;;;;;;17.95;3.40;;;18.90;74.50;;;;;;4773612;30;20103;-74
2021/10/26 13:31:08;;;;;;;20.02;4.10;;;18.90;74.60;;;;;;4774267;30;20066;-77
2021/10/26 13:33:34;;;;;;;12.10;3.70;;;18.90;74.60;;;;;;4790105;29;20124;-75
2021/10/26 13:36:11;;;;;;;17.52;4.07;;;18.90;74.70;;;;;;4791612;29;20058;-77
2021/10/26 13:38:38;;;;;;;22.60;4.03;;;18.90;74.80;;;;;;4808031;29;20047;-74
2021/10/26 13:41:05;;;;;;;15.90;4.18;;;18.80;74.90;;;;;;4779017;29;20149;-75
2021/10/26 13:43:32;;;;;;;15.00;3.47;;;18.80;74.80;;;;;;4784993;30;20071;-75
2021/10/26 13:46:00;;;;;;;25.40;4.13;;;18.70;74.20;;;;;;4784849;29;20092;-75
2021/10/26 13:48:26;;;;;;;25.33;3.85;;;18.60;74.90;;;;;;4774532;29;20452;-74
2021/10/26 13:50:51;;;;;;;24.77;4.20;;;18.70;75.20;;;;;;4775614;30;20053;-74
2021/10/26 13:53:19;;;;;;;19.40;3.65;;;18.70;75.20;;;;;;4773623;29;20062;-77
2021/10/26 13:55:46;;;;;;;13.05;3.13;;;18.80;75.00;;;;;;4804100;29;20062;-78
2021/10/26 13:58:15;;;;;;;14.63;3.50;;;18.70;74.90;;;;;;4807776;29;20371;-75
2021/10/26 14:00:44;;;;;;;12.80;3.53;;;18.80;74.90;;;;;;4791808;29;20486;-77
2021/10/26 14:03:10;;;;;;;14.45;3.20;;;18.90;74.90;;;;;;4797104;29;20126;-77
2021/10/26 14:05:36;;;;;;;14.25;3.13;;;18.90;74.90;;;;;;4789517;30;20451;-78
2021/10/26 14:08:04;;;;;;;17.40;3.92;;;19.00;74.90;;;;;;4788781;29;20096;-78
2021/10/26 14:10:29;;;;;;;13.85;2.90;;;19.10;75.00;;;;;;4782849;29;20067;-77
2021/10/26 14:12:55;;;;;;;19.88;3.33;;;19.10;74.90;;;;;;4788579;29;20047;-77
2021/10/26 14:15:21;;;;;;;23.05;3.92;;;19.10;74.90;;;;;;4788879;30;20091;-77
2021/10/26 14:17:47;;;;;;;15.00;3.63;;;19.10;74.80;;;;;;4789369;30;20090;-77
2021/10/26 14:20:21;;;;;;;17.90;3.33;;;19.10;74.70;;;;;;4789292;30;20051;-77
2021/10/26 14:22:49;;;;;;;17.05;3.35;;;19.20;74.90;;;;;;4789059;30;20051;-75
2021/10/26 14:25:16;;;;;;;19.58;3.72;;;19.10;74.80;;;;;;4797191;29;20455;-74
2021/10/26 14:27:44;;;;;;;18.67;3.70;;;19.20;74.80;;;;;;4776927;29;20046;-73
2021/10/26 14:30:10;;;;;;;21.20;3.90;;;19.20;74.70;;;;;;4784591;30;20499;-75
2021/10/26 14:32:36;;;;;;;11.50;2.90;;;19.20;74.70;;;;;;4792507;29;20138;-73
2021/10/26 14:35:06;;;;;;;12.80;3.13;;;19.10;73.60;;;;;;4792483;30;20055;-77
2021/10/26 14:37:53;;;;;;;12.60;2.90;;;19.10;74.50;;;;;;4776740;30;20055;-73
2021/10/26 14:40:43;;;;;;;9.63;3.13;;;19.10;74.60;;;;;;4792561;29;20055;-74
2021/10/26 14:56:46;;;;;;;9.85;2.95;;;19.10;75.20;;;;;;4792393;30;20422;-75
2021/10/26 14:59:12;;;;;;;12.38;2.78;;;19.10;75.30;;;;;;4792849;30;20104;-75
2021/10/26 15:01:40;;;;;;;8.80;3.00;;;19.10;75.30;;;;;;4792601;30;20059;-77
2021/10/26 15:04:06;;;;;;;13.18;2.55;;;19.10;75.60;;;;;;4791881;30;20131;-79
2021/10/26 15:06:37;;;;;;;10.90;2.50;;;19.10;75.50;;;;;;4791913;30;20487;-79
2021/10/26 15:11:37;;;;;;;9.30;2.50;;;19.10;75.60;;;;;;4792496;29;20428;-75
2021/10/26 15:14:10;;;;;;;9.95;2.72;;;19.10;75.60;;;;;;4792247;30;20090;-75
2021/10/26 15:16:40;;;;;;;8.37;2.67;;;19.10;75.70;;;;;;4792018;30;20371;-77
2021/10/26 15:19:09;;;;;;;8.60;2.88;;;19.10;75.90;;;;;;4776274;30;20047;-77
2021/10/26 15:21:40;;;;;;;8.75;2.97;;;19.10;76.00;;;;;;4792176;30;20138;-77
2021/10/26 15:35:05;;;;;;;15.13;3.40;;;19.10;75.60;;;;;;4809454;29;20071;-77
2021/10/26 15:37:31;;;;;;;9.38;3.50;;;19.10;75.60;;;;;;4809464;29;20394;-74
2021/10/26 15:39:56;;;;;;;10.38;3.40;;;19.10;75.80;;;;;;4809725;29;20046;-75
2021/10/26 15:42:22;;;;;;;15.63;3.03;;;19.10;75.70;;;;;;4793994;29;20085;-76
2021/10/26 15:44:49;;;;;;;13.43;3.15;;;19.10;75.60;;;;;;4776761;29;20063;-75
2021/10/26 15:47:15;;;;;;;13.73;3.55;;;19.00;75.50;;;;;;4773233;30;20055;-75
2021/10/26 15:49:42;;;;;;;12.07;2.95;;;19.00;75.40;;;;;;4775779;29;20478;-76
2021/10/26 15:52:08;;;;;;;10.98;2.72;;;19.00;75.40;;;;;;4775457;29;20516;-77
2021/10/26 15:54:35;;;;;;;16.80;3.55;;;19.00;75.40;;;;;;4773638;30;20051;-72
2021/10/26 15:57:01;;;;;;;12.93;3.03;;;19.00;75.60;;;;;;4757910;30;20142;-77
2021/10/26 15:59:27;;;;;;;10.88;3.40;;;19.00;75.50;;;;;;4773607;30;20135;-75
2021/10/26 16:01:55;;;;;;;13.45;3.97;;;19.00;75.60;;;;;;4757725;30;20138;-75
2021/10/26 16:04:23;;;;;;;11.13;3.53;;;19.00;75.50;;;;;;4757736;30;20056;-78
2021/10/26 16:06:49;;;;;;;12.90;3.20;;;19.00;75.60;;;;;;4764565;30;20413;-77
2021/10/26 16:09:22;;;;;;;16.77;3.38;;;19.10;75.80;;;;;;4775841;30;20372;-77
2021/10/26 16:11:53;;;;;;;11.73;2.92;;;19.10;75.70;;;;;;4790808;29;20055;-77
2021/10/26 16:14:20;;;;;;;12.90;3.10;;;19.10;75.70;;;;;;4791091;29;20132;-77
2021/10/26 16:16:46;;;;;;;11.73;3.30;;;19.10;75.60;;;;;;4790780;29;20055;-77
2021/10/26 16:19:13;;;;;;;9.75;3.42;;;19.10;75.60;;;;;;4791026;29;20086;-76
2021/10/26 16:21:39;;;;;;;8.10;2.50;;;19.10;75.60;;;;;;4790763;30;20438;-77
2021/10/26 16:24:06;;;;;;;10.85;2.60;;;19.10;75.60;;;;;;4790698;30;20051;-78
2021/10/26 16:26:48;;;;;;;7.20;2.47;;;19.10;75.60;;;;;;4791523;29;20112;-76
2021/10/26 16:29:16;;;;;;;13.55;3.28;;;19.10;75.70;;;;;;4791072;29;20132;-77
2021/10/26 16:31:46;;;;;;;20.23;3.15;;;19.10;75.80;;;;;;4775244;30;20055;-77
2021/10/26 16:34:13;;;;;;;12.00;2.58;;;19.00;75.80;;;;;;4790722;29;20056;-77
2021/10/26 16:36:39;;;;;;;14.18;2.75;;;19.00;75.80;;;;;;4790629;30;20491;-80
2021/10/26 16:39:08;;;;;;;18.67;3.65;;;19.00;75.90;;;;;;4790522;30;20435;-77
2021/10/26 16:41:34;;;;;;;9.82;3.17;;;19.00;75.90;;;;;;4775103;30;20481;-79
2021/10/26 16:44:20;;;;;;;13.25;2.67;;;19.00;76.00;;;;;;4774994;30;20391;-79
2021/10/26 16:46:57;;;;;;;10.35;2.50;;;19.00;76.00;;;;;;4790344;30;20352;-78
2021/10/26 16:49:23;;;;;;;6.80;2.00;;;19.00;76.00;;;;;;4775006;30;20486;-75
2021/10/26 16:51:50;;;;;;;13.88;2.03;;;19.00;76.10;;;;;;4791463;29;20055;-76
2021/10/26 16:54:17;;;;;;;11.05;2.20;;;19.00;76.10;;;;;;4774525;30;20067;-76
2021/10/26 16:56:43;;;;;;;7.75;2.00;;;19.00;76.10;;;;;;4790569;30;20051;-78
2021/10/26 16:59:08;;;;;;;14.02;3.20;;;19.00;75.80;;;;;;4805290;29;20481;-78
2021/10/26 17:01:34;;;;;;;10.85;2.38;;;19.00;75.50;;;;;;4808402;29;20047;-77
2021/10/26 17:04:03;;;;;;;12.82;2.97;;;19.00;75.40;;;;;;4808562;29;20051;-78
2021/10/26 17:06:29;;;;;;;7.63;1.92;;;19.00;75.30;;;;;;4808340;29;20051;-78
2021/10/26 17:08:54;;;;;;;10.55;2.05;;;19.00;75.30;;;;;;4792160;29;20100;-77
2021/10/26 17:11:20;;;;;;;9.07;2.47;;;18.90;75.20;;;;;;4790701;30;20054;-77
2021/10/26 17:13:46;;;;;;;10.18;1.90;;;18.90;75.10;;;;;;4790275;30;20051;-83
2021/10/26 17:16:14;;;;;;;9.80;2.30;;;18.90;75.10;;;;;;4795642;29;20051;-78
2021/10/26 17:18:40;;;;;;;10.85;2.03;;;18.90;75.10;;;;;;4785898;29;20059;-79
2021/10/26 17:47:56;;;;;;;10.80;2.17;;;18.60;75.00;;;;;;4961325;24;20465;-77
2021/10/26 17:50:23;;;;;;;17.15;2.20;;;18.60;75.10;;;;;;4825731;29;20073;-77
2021/10/26 17:52:51;;;;;;;10.30;2.22;;;18.60;75.30;;;;;;4826197;29;20104;-77
2021/10/26 17:55:17;;;;;;;4.75;1.48;;;18.60;75.30;;;;;;4826050;29;20480;-77
2021/10/26 17:57:47;;;;;;;9.27;1.63;;;18.50;75.40;;;;;;4825613;29;20114;-77
2021/10/26 18:00:14;;;;;;;8.95;1.85;;;18.50;75.20;;;;;;4806443;29;20058;-76
2021/10/26 18:02:41;;;;;;;7.18;1.45;;;18.50;75.10;;;;;;4826095;29;20089;-78
2021/10/26 18:05:07;;;;;;;6.97;1.58;;;18.50;75.20;;;;;;4826273;29;20114;-77
2021/10/26 18:07:33;;;;;;;7.78;1.30;;;18.50;75.30;;;;;;4829214;29;20046;-77
2021/10/26 18:10:00;;;;;;;5.43;1.20;;;18.50;75.40;;;;;;4829336;29;20049;-78
2021/10/26 18:12:26;;;;;;;9.05;2.00;;;18.40;75.40;;;;;;4829380;29;20384;-77
2021/10/26 18:14:54;;;;;;;6.13;1.73;;;18.40;75.40;;;;;;4828998;29;20062;-79
2021/10/26 18:17:20;;;;;;;5.45;1.27;;;18.40;75.40;;;;;;4829240;29;20061;-78
2021/10/26 18:19:46;;;;;;;5.03;1.50;;;18.40;75.30;;;;;;4813315;29;20123;-78
2021/10/26 18:22:13;;;;;;;5.80;1.40;;;18.40;75.20;;;;;;4828451;29;20054;-77
2021/10/26 18:24:40;;;;;;;6.32;1.30;;;18.40;75.90;;;;;;4827936;29;20450;-77
2021/10/26 18:27:06;;;;;;;8.52;1.20;;;18.40;75.20;;;;;;4829243;29;20054;-77
2021/10/26 18:29:35;;;;;;;7.25;1.58;;;18.40;75.00;;;;;;4829513;29;20054;-78
2021/10/26 18:32:02;;;;;;;5.45;1.65;;;18.30;75.00;;;;;;4817821;29;20097;-77
2021/10/26 18:34:27;;;;;;;4.10;1.05;;;18.20;75.00;;;;;;4812516;29;20498;-79
2021/10/26 18:36:54;;;;;;;5.20;1.42;;;18.10;75.30;;;;;;4828563;29;20050;-76
2021/10/26 18:39:25;;;;;;;7.63;1.83;;;18.10;75.50;;;;;;4828851;29;20067;-76
2021/10/26 18:41:52;;;;;;;10.40;1.80;;;18.00;75.60;;;;;;4828729;29;20056;-77
2021/10/26 18:44:26;;;;;;;6.22;1.35;;;17.90;75.60;;;;;;4798257;29;20096;-78
2021/10/26 18:46:54;;;;;;;3.65;1.30;;;17.90;76.00;;;;;;4828698;29;20057;-78
2021/10/26 18:49:24;;;;;;;5.90;1.10;;;17.90;76.10;;;;;;4828525;29;20489;-78
2021/10/26 18:51:51;;;;;;;5.60;1.30;;;17.90;76.20;;;;;;4829365;29;20062;-77
2021/10/26 18:54:18;;;;;;;6.80;1.52;;;17.90;76.20;;;;;;4828477;29;20058;-75
2021/10/26 18:56:44;;;;;;;6.80;1.20;;;17.90;76.20;;;;;;4804015;29;20051;-76
2021/10/26 18:59:10;;;;;;;11.30;1.55;;;18.00;76.30;;;;;;4810395;29;20088;-78
